createdAt,value
2019-04-03T00:00:22.970Z,34.13
2019-04-03T00:02:53.834Z,34.08
2019-04-03T00:05:24.789Z,34.30
2019-04-03T00:07:55.663Z,34.19
2019-04-03T00:10:29.561Z,33.97
2019-04-03T00:13:00.581Z,34.06
2019-04-03T00:15:31.685Z,33.97
2019-04-03T00:18:02.693Z,33.86
2019-04-03T00:20:33.653Z,33.88
2019-04-03T00:23:07.865Z,33.90
2019-04-03T00:25:38.881Z,34.23
2019-04-03T00:28:22.979Z,34.21
2019-04-03T00:31:02.590Z,33.91
2019-04-03T00:33:34.367Z,33.96
2019-04-03T00:36:05.592Z,34.20
2019-04-03T00:38:37.370Z,34.25
2019-04-03T00:41:08.546Z,34.34
2019-04-03T00:43:41.026Z,34.49
2019-04-03T00:46:11.961Z,34.40
2019-04-03T00:48:43.774Z,34.66
2019-04-03T00:51:14.698Z,34.48
2019-04-03T00:53:45.593Z,34.34
2019-04-03T00:56:17.388Z,34.43
2019-04-03T00:58:48.261Z,34.42
2019-04-03T01:01:20.080Z,34.45
2019-04-03T01:03:50.967Z,34.40
2019-04-03T01:06:21.879Z,34.44
2019-04-03T01:08:52.780Z,34.56
2019-04-03T01:11:23.700Z,34.40
2019-04-03T01:13:54.590Z,34.32
2019-04-03T01:16:25.513Z,34.45
2019-04-03T01:18:56.405Z,34.35
2019-04-03T01:21:27.503Z,34.19
2019-04-03T01:23:58.397Z,34.10
2019-04-03T01:26:29.326Z,34.38
2019-04-03T01:29:00.210Z,34.22
2019-04-03T01:31:31.167Z,34.14
2019-04-03T01:34:02.115Z,34.44
2019-04-03T01:36:33.049Z,34.29
2019-04-03T01:39:05.455Z,34.17
2019-04-03T01:41:37.161Z,34.12
2019-04-03T01:44:08.056Z,34.29
2019-04-03T01:46:39.002Z,34.21
2019-04-03T01:49:09.899Z,34.03
2019-04-03T01:51:40.817Z,34.00
2019-04-03T01:54:11.704Z,33.90
2019-04-03T01:56:42.621Z,34.06
2019-04-03T01:59:13.574Z,34.01
2019-04-03T02:01:44.569Z,34.01
2019-04-03T02:04:15.453Z,34.09
2019-04-03T02:06:46.467Z,33.93
2019-04-03T02:09:17.357Z,33.96
2019-04-03T02:11:49.360Z,34.01
2019-04-03T02:14:21.600Z,33.98
2019-04-03T02:16:54.080Z,34.23
2019-04-03T02:19:26.556Z,34.20
2019-04-03T02:21:59.127Z,34.09
2019-04-03T02:24:31.864Z,34.04
2019-04-03T02:27:03.436Z,33.99
2019-04-03T02:29:34.805Z,33.85
2019-04-03T02:32:06.588Z,33.92
2019-04-03T02:34:37.544Z,33.98
2019-04-03T02:37:08.740Z,34.30
2019-04-03T02:39:40.105Z,34.29
2019-04-03T02:42:11.029Z,34.15
2019-04-03T02:44:41.925Z,34.27
2019-04-03T02:47:13.768Z,34.15
2019-04-03T02:49:45.105Z,34.42
2019-04-03T02:52:16.024Z,34.43
2019-04-03T02:54:47.629Z,34.35
2019-04-03T02:57:18.575Z,34.46
2019-04-03T02:59:49.851Z,34.39
2019-04-03T03:02:20.920Z,34.13
2019-04-03T03:04:54.631Z,34.30
2019-04-03T03:07:24.635Z,34.12
2019-04-03T03:09:55.524Z,34.15
2019-04-03T03:12:28.474Z,34.16
2019-04-03T03:15:01.521Z,34.43
2019-04-03T03:17:32.847Z,34.29
2019-04-03T03:20:07.728Z,34.31
2019-04-03T03:22:40.441Z,34.30
2019-04-03T03:25:12.798Z,34.22
2019-04-03T03:27:44.602Z,34.37
2019-04-03T03:30:41.118Z,34.50
2019-04-03T03:32:49.492Z,34.37
2019-04-03T03:35:29.383Z,34.50
2019-04-03T03:37:54.179Z,34.50
2019-04-03T03:40:25.576Z,34.62
2019-04-03T03:42:58.250Z,34.85
2019-04-03T03:45:30.965Z,34.86
2019-04-03T03:48:02.300Z,34.73
2019-04-03T03:50:36.876Z,34.79
2019-04-03T03:53:11.524Z,34.81
2019-04-03T03:55:42.041Z,34.94
2019-04-03T03:58:14.056Z,34.90
2019-04-03T04:00:51.286Z,34.97
2019-04-03T04:03:18.536Z,34.97
2019-04-03T04:05:53.865Z,35.01
2019-04-03T04:08:22.711Z,35.07
2019-04-03T04:10:58.198Z,35.29
2019-04-03T04:13:27.689Z,35.31
2019-04-03T04:16:02.177Z,35.40
2019-04-03T04:18:32.659Z,35.37
2019-04-03T04:21:03.912Z,35.51
2019-04-03T04:23:35.718Z,35.49
2019-04-03T04:26:06.890Z,35.57
2019-04-03T04:28:40.432Z,35.64
2019-04-03T04:31:12.350Z,35.69
2019-04-03T04:33:43.190Z,35.66
2019-04-03T04:36:14.131Z,35.84
2019-04-03T04:38:51.457Z,35.71
2019-04-03T04:41:22.464Z,35.73
2019-04-03T04:43:53.366Z,35.76
2019-04-03T04:46:24.249Z,35.98
2019-04-03T04:48:55.180Z,36.02
2019-04-03T04:51:26.871Z,36.15
2019-04-03T04:53:59.442Z,36.07
2019-04-03T04:56:30.368Z,35.83
2019-04-03T04:59:01.488Z,36.10
2019-04-03T05:01:32.349Z,36.20
2019-04-03T05:04:03.304Z,36.10
2019-04-03T05:06:34.284Z,35.80
2019-04-03T05:09:06.782Z,35.86
2019-04-03T05:11:39.074Z,35.85
2019-04-03T05:14:10.355Z,35.46
2019-04-03T05:16:41.252Z,35.32
2019-04-03T05:19:18.700Z,35.34
2019-04-03T05:21:45.768Z,35.50
2019-04-03T05:24:16.696Z,35.71
2019-04-03T05:26:47.595Z,35.45
2019-04-03T05:29:18.554Z,35.55
2019-04-03T05:31:49.602Z,35.50
2019-04-03T05:34:20.556Z,35.48
2019-04-03T05:36:51.585Z,35.02
2019-04-03T05:39:24.136Z,34.68
2019-04-03T05:41:58.598Z,34.30
2019-04-03T05:44:28.563Z,34.19
2019-04-03T05:47:00.013Z,34.28
2019-04-03T05:49:31.148Z,33.83
2019-04-03T05:52:04.109Z,33.42
2019-04-03T05:54:38.603Z,33.19
2019-04-03T05:57:08.387Z,33.18
2019-04-03T05:59:39.478Z,32.81
2019-04-03T06:02:16.105Z,32.47
2019-04-03T06:04:44.152Z,32.56
2019-04-03T06:07:17.464Z,32.44
2019-04-03T06:09:47.746Z,32.12
2019-04-03T06:12:19.318Z,32.35
2019-04-03T06:14:50.969Z,32.29
2019-04-03T06:17:22.312Z,31.69
2019-04-03T06:19:53.280Z,31.59
2019-04-03T06:22:24.987Z,31.56
2019-04-03T06:24:56.982Z,31.03
2019-04-03T06:27:28.200Z,30.57
2019-04-03T06:30:02.145Z,30.43
2019-04-03T06:32:33.211Z,30.37
2019-04-03T06:35:04.516Z,30.38
2019-04-03T06:37:35.867Z,30.07
2019-04-03T06:40:08.678Z,29.97
2019-04-03T06:42:42.416Z,29.81
2019-04-03T06:45:15.573Z,29.90
2019-04-03T06:47:46.302Z,29.45
2019-04-03T06:50:17.915Z,29.49
2019-04-03T06:52:52.609Z,30.09
2019-04-03T06:55:25.341Z,29.31
2019-04-03T06:57:56.543Z,29.31
2019-04-03T07:00:27.475Z,29.28
2019-04-03T07:03:03.336Z,29.09
2019-04-03T07:05:37.029Z,29.24
2019-04-03T07:08:09.729Z,29.55
2019-04-03T07:10:41.122Z,29.05
2019-04-03T07:13:15.068Z,29.05
2019-04-03T07:15:46.332Z,29.11
2019-04-03T07:18:17.376Z,29.17
2019-04-03T07:20:50.985Z,28.62
2019-04-03T07:23:22.057Z,28.72
2019-04-03T07:25:53.209Z,28.92
2019-04-03T07:28:24.232Z,29.33
2019-04-03T07:30:55.290Z,29.93
2019-04-03T07:33:28.462Z,29.92
2019-04-03T07:35:59.569Z,30.20
2019-04-03T07:38:30.550Z,29.82
2019-04-03T07:41:01.501Z,29.77
2019-04-03T07:43:32.564Z,29.97
2019-04-03T07:46:03.983Z,29.85
2019-04-03T07:48:35.815Z,30.09
2019-04-03T07:51:07.962Z,30.17
2019-04-03T07:53:39.900Z,30.08
2019-04-03T07:56:11.032Z,30.73
2019-04-03T07:58:42.226Z,30.92
2019-04-03T08:01:14.133Z,31.18
2019-04-03T08:03:45.601Z,30.73
2019-04-03T08:06:20.532Z,30.72
2019-04-03T08:09:08.217Z,30.52
2019-04-03T08:11:44.381Z,30.47
2019-04-03T08:14:19.047Z,30.49
2019-04-03T08:16:51.500Z,30.45
2019-04-03T08:19:23.505Z,30.85
2019-04-03T08:21:54.712Z,30.51
2019-04-03T08:24:27.544Z,30.22
2019-04-03T08:26:58.610Z,30.57
2019-04-03T08:29:31.052Z,30.63
2019-04-03T08:32:02.205Z,30.27
2019-04-03T08:34:33.146Z,30.13
2019-04-03T08:37:04.087Z,30.22
2019-04-03T08:39:36.577Z,30.03
2019-04-03T08:42:07.542Z,30.21
2019-04-03T08:44:38.755Z,30.21
2019-04-03T08:47:10.232Z,30.07
2019-04-03T08:49:41.171Z,30.42
2019-04-03T08:52:14.374Z,30.00
2019-04-03T08:54:44.743Z,30.18
2019-04-03T08:57:15.973Z,30.36
2019-04-03T08:59:47.310Z,30.17
2019-04-03T09:02:18.287Z,29.92
2019-04-03T09:04:49.367Z,29.98
2019-04-03T09:07:20.617Z,29.57
2019-04-03T09:09:52.370Z,30.21
2019-04-03T09:12:23.291Z,29.71
2019-04-03T09:14:56.401Z,29.75
2019-04-03T09:17:26.957Z,30.22
2019-04-03T09:19:57.842Z,29.99
2019-04-03T09:22:28.755Z,30.19
2019-04-03T09:25:01.018Z,29.95
2019-04-03T09:27:31.959Z,29.84
2019-04-03T09:30:05.171Z,30.28
2019-04-03T09:32:37.398Z,30.02
2019-04-03T09:35:09.313Z,30.55
2019-04-03T09:37:40.224Z,30.85
2019-04-03T09:40:12.127Z,31.33
2019-04-03T09:42:43.642Z,31.33
2019-04-03T09:45:15.128Z,30.72
2019-04-03T09:47:46.142Z,31.67
2019-04-03T09:50:17.393Z,31.28
2019-04-03T09:52:50.097Z,31.32
2019-04-03T09:55:22.719Z,31.50
2019-04-03T09:57:54.090Z,31.61
2019-04-03T10:00:25.603Z,31.61
2019-04-03T10:02:56.569Z,31.38
2019-04-03T10:05:28.996Z,32.05
2019-04-03T10:08:00.432Z,32.26
2019-04-03T10:10:32.491Z,31.89
2019-04-03T10:13:03.537Z,31.63
2019-04-03T10:15:34.674Z,31.59
2019-04-03T10:18:08.607Z,31.86
2019-04-03T10:20:38.757Z,31.81
2019-04-03T10:23:09.853Z,32.20
2019-04-03T10:25:41.689Z,31.66
2019-04-03T10:28:14.792Z,31.82
2019-04-03T10:30:45.270Z,31.75
2019-04-03T10:33:16.479Z,31.78
2019-04-03T10:35:47.809Z,31.84
2019-04-03T10:38:19.034Z,31.82
2019-04-03T10:40:51.002Z,31.92
2019-04-03T10:43:22.216Z,32.07
2019-04-03T10:45:53.335Z,31.99
2019-04-03T10:48:25.732Z,31.78
2019-04-03T10:50:57.020Z,32.08
2019-04-03T10:53:28.036Z,32.11
2019-04-03T10:56:00.665Z,32.27
2019-04-03T10:58:31.734Z,32.11
2019-04-03T11:01:02.731Z,31.91
2019-04-03T11:03:33.971Z,32.21
2019-04-03T11:06:05.088Z,32.25
2019-04-03T11:08:36.033Z,32.21
2019-04-03T11:11:08.127Z,31.62
2019-04-03T11:13:39.211Z,32.18
2019-04-03T11:16:10.422Z,31.90
2019-04-03T11:18:41.457Z,31.64
2019-04-03T11:21:13.453Z,31.96
2019-04-03T11:23:45.575Z,31.87
2019-04-03T11:26:19.598Z,31.73
2019-04-03T11:28:50.521Z,31.94
2019-04-03T11:31:27.054Z,32.44
2019-04-03T11:33:54.055Z,31.43
2019-04-03T11:36:28.089Z,31.59
2019-04-03T11:39:10.534Z,31.58
2019-04-03T11:41:30.258Z,31.73
2019-04-03T11:44:01.233Z,31.46
2019-04-03T11:46:32.173Z,31.35
2019-04-03T11:49:03.383Z,31.37
2019-04-03T11:51:34.567Z,31.47
2019-04-03T11:54:08.225Z,31.57
2019-04-03T11:56:39.180Z,31.59
2019-04-03T11:59:10.079Z,31.41
2019-04-03T12:01:41.085Z,31.42
2019-04-03T12:04:12.801Z,31.27
2019-04-03T12:06:44.426Z,31.38
2019-04-03T12:09:15.427Z,31.32
2019-04-03T12:11:47.303Z,31.25
2019-04-03T12:14:18.718Z,31.42
2019-04-03T12:16:49.789Z,31.36
2019-04-03T12:19:20.704Z,31.62
2019-04-03T12:21:52.239Z,31.11
2019-04-03T12:24:23.159Z,31.13
2019-04-03T12:26:55.457Z,31.28
2019-04-03T12:29:26.951Z,31.16
2019-04-03T12:31:58.041Z,31.03
2019-04-03T12:34:29.323Z,31.18
2019-04-03T12:37:00.334Z,31.08
2019-04-03T12:39:31.267Z,31.11
2019-04-03T12:42:03.238Z,31.21
2019-04-03T12:44:34.534Z,30.84
2019-04-03T12:47:11.990Z,30.99
2019-04-03T12:49:38.171Z,31.11
2019-04-03T12:52:09.104Z,30.93
2019-04-03T12:54:40.116Z,31.03
2019-04-03T12:57:12.086Z,31.18
2019-04-03T12:59:43.027Z,31.03
2019-04-03T13:02:14.023Z,30.79
2019-04-03T13:04:44.935Z,30.92
2019-04-03T13:07:16.220Z,30.58
2019-04-03T13:09:48.754Z,30.86
2019-04-03T13:12:23.092Z,30.55
2019-04-03T13:14:53.093Z,30.44
2019-04-03T13:17:24.044Z,30.36
2019-04-03T13:19:55.199Z,30.29
2019-04-03T13:22:26.615Z,30.50
2019-04-03T13:24:57.551Z,30.44
2019-04-03T13:27:31.728Z,30.38
2019-04-03T13:30:02.941Z,30.57
2019-04-03T13:32:33.867Z,30.12
2019-04-03T13:35:07.070Z,30.42
2019-04-03T13:37:38.006Z,30.53
2019-04-03T13:40:09.953Z,30.26
2019-04-03T13:42:41.974Z,30.99
2019-04-03T13:45:13.632Z,30.52
2019-04-03T13:47:46.579Z,30.37
2019-04-03T13:50:17.342Z,30.72
2019-04-03T13:52:50.015Z,30.24
2019-04-03T13:55:20.991Z,30.09
2019-04-03T13:57:54.746Z,30.08
2019-04-03T14:00:25.713Z,29.83
2019-04-03T14:02:58.195Z,30.24
2019-04-03T14:05:32.337Z,30.13
2019-04-03T14:08:01.978Z,30.44
2019-04-03T14:10:32.959Z,29.76
2019-04-03T14:13:06.332Z,30.08
2019-04-03T14:15:37.237Z,30.02
2019-04-03T14:18:09.012Z,30.07
2019-04-03T14:20:40.369Z,30.32
2019-04-03T14:23:12.132Z,30.13
2019-04-03T14:25:43.140Z,29.92
2019-04-03T14:28:15.094Z,29.52
2019-04-03T14:30:46.005Z,29.90
2019-04-03T14:33:18.988Z,29.63
2019-04-03T14:35:53.300Z,29.56
2019-04-03T14:38:22.365Z,29.83
2019-04-03T14:40:53.269Z,29.65
2019-04-03T14:43:24.245Z,29.72
2019-04-03T14:45:55.141Z,29.80
2019-04-03T14:48:27.331Z,30.27
2019-04-03T14:50:58.726Z,30.81
2019-04-03T14:53:29.991Z,30.99
2019-04-03T14:56:01.532Z,30.68
2019-04-03T14:58:35.422Z,30.38
2019-04-03T15:01:06.567Z,29.70
2019-04-03T15:03:38.420Z,29.62
2019-04-03T15:06:09.316Z,29.45
2019-04-03T15:08:40.615Z,29.63
2019-04-03T15:11:11.606Z,29.72
2019-04-03T15:13:43.734Z,30.11
2019-04-03T15:16:14.637Z,29.46
2019-04-03T15:18:45.573Z,28.92
2019-04-03T15:21:16.599Z,29.23
2019-04-03T15:23:47.591Z,29.07
2019-04-03T15:26:19.378Z,29.40
2019-04-03T15:28:52.474Z,30.45
2019-04-03T15:31:24.522Z,30.77
2019-04-03T15:33:56.268Z,30.82
2019-04-03T15:36:27.682Z,31.15
2019-04-03T15:38:59.775Z,31.00
2019-04-03T15:41:33.330Z,31.04
2019-04-03T15:44:05.116Z,30.86
2019-04-03T15:46:36.099Z,30.97
2019-04-03T15:49:07.406Z,31.04
2019-04-03T15:51:39.807Z,30.99
2019-04-03T15:54:11.288Z,30.92
2019-04-03T15:56:44.848Z,31.02
2019-04-03T15:59:16.354Z,31.46
2019-04-03T16:01:47.252Z,31.46
2019-04-03T16:04:18.430Z,31.30
2019-04-03T16:06:49.529Z,31.41
2019-04-03T16:09:20.508Z,30.80
2019-04-03T16:11:51.969Z,31.20
2019-04-03T16:14:24.534Z,31.36
2019-04-03T16:16:55.988Z,31.48
2019-04-03T16:19:27.118Z,30.99
2019-04-03T16:21:58.266Z,31.57
2019-04-03T16:24:29.290Z,31.57
2019-04-03T16:27:00.646Z,31.11
2019-04-03T16:29:32.449Z,31.35
2019-04-03T16:32:03.563Z,31.22
2019-04-03T16:34:34.674Z,31.52
2019-04-03T16:37:05.857Z,31.42
2019-04-03T16:39:36.863Z,31.62
2019-04-03T16:42:07.730Z,31.78
2019-04-03T16:44:39.207Z,31.82
2019-04-03T16:47:10.666Z,31.87
2019-04-03T16:49:43.211Z,31.91
2019-04-03T16:52:14.272Z,32.10
2019-04-03T16:54:45.481Z,32.42
2019-04-03T16:57:16.470Z,32.19
2019-04-03T16:59:50.034Z,32.30
2019-04-03T17:02:23.863Z,31.93
2019-04-03T17:04:53.566Z,31.91
2019-04-03T17:07:24.474Z,31.86
2019-04-03T17:09:55.424Z,31.67
2019-04-03T17:12:26.335Z,31.70
2019-04-03T17:14:58.272Z,31.46
2019-04-03T17:17:29.259Z,31.39
2019-04-03T17:20:00.205Z,31.33
2019-04-03T17:22:31.115Z,31.40
2019-04-03T17:25:02.392Z,31.43
2019-04-03T17:27:33.540Z,31.37
2019-04-03T17:30:10.069Z,31.35
2019-04-03T17:32:41.044Z,31.63
2019-04-03T17:35:14.105Z,31.35
2019-04-03T17:37:44.758Z,31.64
2019-04-03T17:40:16.737Z,31.82
2019-04-03T17:42:47.671Z,31.95
2019-04-03T17:45:19.540Z,31.80
2019-04-03T17:47:53.668Z,31.45
2019-04-03T17:50:23.147Z,31.32
2019-04-03T17:52:54.073Z,31.38
2019-04-03T17:55:25.029Z,31.39
2019-04-03T17:57:56.134Z,31.15
2019-04-03T18:00:29.702Z,30.53
2019-04-03T18:03:00.742Z,30.47
2019-04-03T18:05:33.246Z,30.33
2019-04-03T18:08:04.587Z,30.39
2019-04-03T18:10:37.563Z,30.63
2019-04-03T18:13:08.583Z,30.71
2019-04-03T18:15:40.588Z,31.04
2019-04-03T18:18:13.229Z,31.20
2019-04-03T18:20:44.627Z,31.37
2019-04-03T18:23:16.441Z,31.48
2019-04-03T18:25:47.509Z,31.64
2019-04-03T18:28:20.867Z,31.77
2019-04-03T18:30:51.958Z,31.75
2019-04-03T18:33:22.866Z,31.69
2019-04-03T18:35:56.518Z,31.72
2019-04-03T18:38:26.412Z,31.69
2019-04-03T18:40:57.349Z,31.98
2019-04-03T18:43:28.274Z,32.02
2019-04-03T18:46:00.308Z,32.10
2019-04-03T18:48:31.198Z,32.25
2019-04-03T18:51:02.179Z,32.22
2019-04-03T18:53:33.098Z,32.55
2019-04-03T18:56:04.143Z,32.73
2019-04-03T18:58:35.118Z,33.12
2019-04-03T19:01:09.860Z,33.53
2019-04-03T19:03:40.828Z,33.69
2019-04-03T19:06:13.451Z,33.77
2019-04-03T19:08:44.370Z,33.61
2019-04-03T19:11:15.392Z,33.61
2019-04-03T19:13:49.170Z,33.56
2019-04-03T19:16:29.341Z,33.55
2019-04-03T19:18:52.573Z,33.67
2019-04-03T19:21:27.058Z,33.60
2019-04-03T19:23:56.464Z,33.42
2019-04-03T19:26:27.446Z,33.56
2019-04-03T19:28:58.386Z,33.70
2019-04-03T19:31:34.828Z,33.80
2019-04-03T19:34:08.998Z,33.94
2019-04-03T19:36:42.949Z,33.92
2019-04-03T19:39:12.675Z,34.00
2019-04-03T19:41:43.606Z,34.26
2019-04-03T19:44:16.148Z,34.32
2019-04-03T19:46:47.976Z,34.70
2019-04-03T19:49:18.893Z,35.03
2019-04-03T19:51:49.854Z,35.21
2019-04-03T19:54:32.744Z,35.38
2019-04-03T19:57:09.025Z,35.85
2019-04-03T19:59:39.968Z,36.29
2019-04-03T20:02:13.329Z,36.50
2019-04-03T20:04:45.826Z,36.71
2019-04-03T20:07:17.673Z,36.64
2019-04-03T20:09:48.579Z,36.54
2019-04-03T20:12:19.534Z,36.63
2019-04-03T20:14:57.877Z,36.78
2019-04-03T20:17:24.536Z,36.78
2019-04-03T20:19:57.894Z,37.06
2019-04-03T20:22:28.519Z,37.12
2019-04-03T20:25:14.423Z,37.37
2019-04-03T20:27:51.459Z,37.24
2019-04-03T20:30:21.227Z,37.11
2019-04-03T20:32:53.913Z,37.47
2019-04-03T20:35:24.833Z,37.41
2019-04-03T20:37:57.021Z,37.36
2019-04-03T20:40:31.731Z,37.55
2019-04-03T20:43:01.204Z,37.53
2019-04-03T20:45:32.117Z,37.31
2019-04-03T20:48:03.934Z,37.30
2019-04-03T20:50:37.726Z,37.76
2019-04-03T20:53:07.515Z,37.50
2019-04-03T20:55:38.404Z,37.56
2019-04-03T20:58:09.353Z,37.85
2019-04-03T21:00:40.265Z,37.86
2019-04-03T21:03:13.067Z,38.03
2019-04-03T21:05:44.473Z,37.92
2019-04-03T21:08:26.682Z,37.83
2019-04-03T21:10:58.149Z,37.79
2019-04-03T21:13:29.193Z,37.87
2019-04-03T21:16:00.113Z,37.86
2019-04-03T21:18:32.703Z,37.93
2019-04-03T21:21:03.602Z,37.94
2019-04-03T21:23:34.558Z,37.98
2019-04-03T21:26:07.316Z,38.01
2019-04-03T21:28:40.859Z,38.04
2019-04-03T21:31:10.866Z,38.02
2019-04-03T21:33:45.129Z,38.04
2019-04-03T21:36:15.327Z,37.97
2019-04-03T21:38:46.249Z,37.89
2019-04-03T21:41:20.372Z,37.74
2019-04-03T21:43:49.766Z,37.50
2019-04-03T21:46:20.725Z,37.49
2019-04-03T21:48:53.988Z,37.54
2019-04-03T21:51:24.888Z,37.36
2019-04-03T21:53:56.565Z,37.28
2019-04-03T21:56:38.528Z,37.47
2019-04-03T21:59:39.877Z,37.39
2019-04-03T22:02:10.280Z,37.41
2019-04-03T22:04:42.952Z,37.42
2019-04-03T22:07:14.045Z,37.40
2019-04-03T22:09:45.157Z,37.25
2019-04-03T22:12:16.089Z,37.42
2019-04-03T22:14:47.051Z,37.50
2019-04-03T22:17:17.963Z,37.50
2019-04-03T22:19:49.824Z,37.62
2019-04-03T22:22:20.721Z,37.74
2019-04-03T22:24:52.519Z,37.89
2019-04-03T22:27:23.485Z,37.88
2019-04-03T22:29:54.420Z,38.11
2019-04-03T22:32:25.406Z,38.27
2019-04-03T22:34:57.134Z,38.15
2019-04-03T22:37:28.030Z,38.17
2019-04-03T22:39:58.959Z,38.09
2019-04-03T22:42:29.860Z,38.10
2019-04-03T22:45:00.786Z,38.20
2019-04-03T22:47:31.689Z,38.06
2019-04-03T22:50:05.579Z,37.71
2019-04-03T22:52:36.059Z,37.50
2019-04-03T22:55:07.392Z,37.34
2019-04-03T22:57:38.292Z,37.24
2019-04-03T23:00:09.231Z,37.34
2019-04-03T23:02:40.148Z,37.41
2019-04-03T23:05:12.777Z,37.50
2019-04-03T23:07:43.680Z,37.67
2019-04-03T23:10:14.608Z,37.81
2019-04-03T23:12:45.495Z,37.78
2019-04-03T23:15:16.426Z,37.95
2019-04-03T23:17:47.257Z,37.95
2019-04-03T23:20:20.155Z,38.02
2019-04-03T23:22:51.739Z,37.93
2019-04-03T23:25:22.593Z,38.20
2019-04-03T23:27:53.491Z,38.16
2019-04-03T23:30:24.505Z,38.14
2019-04-03T23:32:55.410Z,38.22
2019-04-03T23:35:27.155Z,38.38
2019-04-03T23:37:58.060Z,38.53
2019-04-03T23:40:28.987Z,38.74
2019-04-03T23:42:59.813Z,38.69
2019-04-03T23:45:31.399Z,38.95
2019-04-03T23:48:02.225Z,39.32
2019-04-03T23:50:33.193Z,39.28
2019-04-03T23:53:04.072Z,39.30
2019-04-03T23:55:36.234Z,39.33
2019-04-03T23:58:09.034Z,39.42
